createdAt,value
2023-01-19T00:00:54.912Z,3.63
2023-01-19T00:03:22.279Z,2.80
2023-01-19T00:05:49.789Z,3.77
2023-01-19T00:08:17.773Z,2.30
2023-01-19T00:10:48.018Z,2.97
2023-01-19T00:13:15.878Z,3.10
2023-01-19T00:15:43.820Z,2.93
2023-01-19T00:18:11.390Z,3.13
2023-01-19T00:20:39.555Z,2.80
2023-01-19T00:23:08.323Z,3.27
2023-01-19T00:25:42.778Z,3.47
2023-01-19T00:28:15.989Z,3.80
2023-01-19T00:30:43.428Z,3.03
2023-01-19T00:33:13.781Z,3.57
2023-01-19T00:35:42.709Z,2.93
2023-01-19T00:38:11.380Z,2.30
2023-01-19T00:40:38.689Z,2.17
2023-01-19T00:43:05.791Z,2.20
2023-01-19T00:45:33.919Z,2.07
2023-01-19T00:48:01.204Z,2.53
2023-01-19T00:50:30.191Z,2.30
2023-01-19T00:53:01.273Z,2.60
2023-01-19T00:55:30.350Z,2.07
2023-01-19T00:57:58.426Z,2.10
2023-01-19T01:00:26.555Z,1.80
2023-01-19T01:02:54.481Z,2.00
2023-01-19T01:05:22.224Z,2.50
2023-01-19T01:07:50.715Z,2.33
2023-01-19T01:10:23.971Z,2.13
2023-01-19T01:12:57.038Z,2.30
2023-01-19T01:15:27.406Z,1.50
2023-01-19T01:17:54.949Z,1.20
2023-01-19T01:20:28.134Z,1.30
2023-01-19T01:22:56.770Z,1.10
2023-01-19T01:25:25.752Z,1.20
2023-01-19T01:27:53.794Z,1.10
2023-01-19T01:30:21.598Z,1.63
2023-01-19T01:32:49.171Z,1.90
2023-01-19T01:35:17.070Z,1.30
2023-01-19T01:37:44.375Z,1.67
2023-01-19T01:40:16.952Z,1.77
2023-01-19T01:42:45.182Z,1.37
2023-01-19T01:45:38.443Z,1.20
2023-01-19T01:48:22.423Z,1.70
2023-01-19T01:51:21.638Z,6.80
2023-01-19T01:54:06.838Z,7.13
2023-01-19T01:56:46.589Z,4.17
2023-01-19T01:59:28.106Z,3.80
2023-01-19T02:02:19.076Z,3.50
2023-01-19T02:04:55.860Z,4.83
2023-01-19T02:07:53.718Z,6.87
2023-01-19T02:10:39.604Z,4.53
2023-01-19T02:13:23.071Z,7.60
2023-01-19T02:15:55.910Z,4.57
2023-01-19T02:18:25.166Z,3.97
2023-01-19T02:21:14.976Z,2.87
2023-01-19T02:23:49.383Z,3.27
2023-01-19T02:26:38.990Z,3.47
2023-01-19T02:29:09.876Z,3.70
2023-01-19T02:31:39.171Z,3.47
2023-01-19T02:34:09.858Z,2.77
2023-01-19T02:36:45.945Z,3.17
2023-01-19T02:39:15.767Z,3.17
2023-01-19T02:41:48.832Z,3.90
2023-01-19T02:44:18.380Z,4.30
2023-01-19T02:46:45.708Z,4.00
2023-01-19T02:49:13.664Z,4.70
2023-01-19T02:51:44.122Z,4.67
2023-01-19T02:54:23.507Z,4.07
2023-01-19T02:56:55.693Z,4.90
2023-01-19T03:00:05.231Z,5.77
2023-01-19T03:02:51.856Z,4.40
2023-01-19T03:05:56.972Z,5.00
2023-01-19T03:08:31.286Z,5.27
2023-01-19T03:11:18.908Z,5.63
2023-01-19T03:13:54.130Z,4.63
2023-01-19T03:16:32.986Z,4.40
2023-01-19T03:19:21.442Z,4.67
2023-01-19T03:21:54.499Z,4.93
2023-01-19T03:24:24.372Z,5.10
2023-01-19T03:27:00.635Z,5.57
2023-01-19T03:29:34.915Z,5.43
2023-01-19T03:32:06.853Z,5.00
2023-01-19T03:34:35.389Z,5.60
2023-01-19T03:37:04.581Z,6.20
2023-01-19T03:39:32.025Z,4.63
2023-01-19T03:42:13.051Z,5.13
2023-01-19T03:44:43.597Z,1.67
2023-01-19T03:47:13.896Z,2.30
2023-01-19T03:49:44.007Z,5.13
2023-01-19T03:52:11.475Z,4.23
2023-01-19T03:54:38.975Z,1.97
2023-01-19T03:57:06.161Z,1.70
2023-01-19T03:59:33.571Z,1.17
2023-01-19T04:02:00.774Z,0.83
2023-01-19T04:04:27.986Z,0.80
2023-01-19T04:06:55.147Z,0.73
2023-01-19T04:09:22.353Z,0.70
2023-01-19T04:11:49.445Z,0.60
2023-01-19T04:14:16.731Z,0.60
2023-01-19T04:16:43.831Z,0.70
2023-01-19T04:19:11.535Z,0.70
2023-01-19T04:21:38.706Z,0.57
2023-01-19T04:24:06.227Z,0.80
2023-01-19T04:26:33.425Z,0.70
2023-01-19T04:29:00.546Z,0.60
2023-01-19T04:31:27.717Z,0.60
2023-01-19T04:33:56.150Z,0.60
2023-01-19T04:36:23.375Z,0.70
2023-01-19T04:38:50.578Z,0.70
2023-01-19T04:41:18.427Z,0.60
2023-01-19T04:43:47.648Z,0.60
2023-01-19T04:46:15.356Z,0.70
2023-01-19T04:48:42.836Z,0.70
2023-01-19T04:51:09.993Z,0.60
2023-01-19T04:53:37.364Z,0.70
2023-01-19T04:56:04.751Z,0.70
2023-01-19T04:58:31.893Z,0.70
2023-01-19T05:00:59.536Z,0.80
2023-01-19T05:03:27.016Z,0.60
2023-01-19T05:05:54.544Z,0.77
2023-01-19T05:08:21.648Z,0.70
2023-01-19T05:10:48.852Z,0.60
2023-01-19T05:13:16.111Z,0.80
2023-01-19T05:15:43.254Z,0.70
2023-01-19T05:18:10.681Z,0.70
2023-01-19T05:20:37.853Z,0.67
2023-01-19T05:23:05.032Z,0.90
2023-01-19T05:25:32.243Z,0.70
2023-01-19T05:27:59.367Z,0.70
2023-01-19T05:30:26.554Z,0.67
2023-01-19T05:32:53.763Z,0.70
2023-01-19T05:35:31.401Z,0.87
2023-01-19T05:38:02.667Z,0.87
2023-01-19T05:40:29.858Z,1.00
2023-01-19T05:43:01.018Z,0.90
2023-01-19T05:45:28.849Z,0.80
2023-01-19T05:47:56.131Z,0.63
2023-01-19T05:50:23.658Z,0.90
2023-01-19T05:52:53.238Z,0.73
2023-01-19T05:55:20.829Z,0.97
2023-01-19T05:57:48.041Z,0.57
2023-01-19T06:00:15.921Z,0.70
2023-01-19T06:02:43.531Z,0.70
2023-01-19T06:05:11.056Z,0.70
2023-01-19T06:07:38.359Z,0.80
2023-01-19T06:10:06.069Z,0.60
2023-01-19T06:12:33.294Z,0.73
2023-01-19T06:15:00.481Z,0.70
2023-01-19T06:17:27.664Z,0.70
2023-01-19T06:19:55.119Z,0.63
2023-01-19T06:22:23.138Z,0.70
2023-01-19T06:24:50.666Z,0.60
2023-01-19T06:27:18.041Z,0.63
2023-01-19T06:29:45.156Z,0.80
2023-01-19T06:32:12.341Z,0.70
2023-01-19T06:34:43.725Z,0.70
2023-01-19T06:37:11.741Z,0.63
2023-01-19T06:39:41.106Z,0.70
2023-01-19T06:42:08.919Z,0.70
2023-01-19T06:44:36.223Z,0.70
2023-01-19T06:47:15.032Z,0.60
2023-01-19T06:49:43.446Z,0.90
2023-01-19T06:52:11.630Z,0.80
2023-01-19T06:54:38.772Z,0.90
2023-01-19T06:57:05.926Z,0.60
2023-01-19T06:59:33.112Z,0.70
2023-01-19T07:02:00.406Z,0.70
2023-01-19T07:04:47.385Z,0.80
2023-01-19T07:07:16.146Z,0.60
2023-01-19T07:09:43.344Z,0.80
2023-01-19T07:12:10.463Z,0.80
2023-01-19T07:14:37.589Z,0.57
2023-01-19T07:17:04.804Z,0.70
2023-01-19T07:19:32.106Z,0.90
2023-01-19T07:21:59.347Z,0.70
2023-01-19T07:24:26.543Z,0.57
2023-01-19T07:26:53.680Z,0.67
2023-01-19T07:29:20.829Z,0.70
2023-01-19T07:31:49.085Z,0.70
2023-01-19T07:34:16.290Z,0.70
2023-01-19T07:36:44.200Z,0.80
2023-01-19T07:39:11.459Z,0.60
2023-01-19T07:41:38.632Z,0.80
2023-01-19T07:44:05.824Z,0.70
2023-01-19T07:46:32.928Z,0.70
2023-01-19T07:49:00.298Z,0.67
2023-01-19T07:51:27.965Z,0.70
2023-01-19T07:53:55.195Z,0.73
2023-01-19T07:56:24.293Z,0.70
2023-01-19T07:58:52.628Z,0.60
2023-01-19T08:01:19.939Z,0.80
2023-01-19T08:03:49.030Z,0.70
2023-01-19T08:06:33.481Z,0.60
2023-01-19T08:09:00.796Z,0.80
2023-01-19T08:11:28.009Z,0.70
2023-01-19T08:13:55.143Z,0.87
2023-01-19T08:16:22.544Z,0.80
2023-01-19T08:18:49.780Z,0.83
2023-01-19T08:21:16.994Z,0.70
2023-01-19T08:23:44.362Z,0.60
2023-01-19T08:26:27.424Z,0.70
2023-01-19T08:28:56.051Z,0.70
2023-01-19T08:31:25.036Z,0.70
2023-01-19T08:33:53.350Z,0.60
2023-01-19T08:36:22.605Z,0.60
2023-01-19T08:38:49.884Z,0.60
2023-01-19T08:41:17.159Z,0.80
2023-01-19T08:43:47.703Z,0.80
2023-01-19T08:46:17.567Z,0.60
2023-01-19T08:48:48.773Z,0.80
2023-01-19T08:51:16.990Z,0.77
2023-01-19T08:53:44.328Z,0.60
2023-01-19T08:56:14.708Z,0.80
2023-01-19T08:58:43.780Z,0.70
2023-01-19T09:01:17.009Z,0.67
2023-01-19T09:03:44.786Z,0.60
2023-01-19T09:06:14.653Z,0.67
2023-01-19T09:08:41.809Z,0.60
2023-01-19T09:11:13.861Z,0.80
2023-01-19T09:13:41.606Z,0.80
2023-01-19T09:16:09.890Z,0.60
2023-01-19T09:18:37.327Z,0.80
2023-01-19T09:21:04.651Z,1.00
2023-01-19T09:23:31.960Z,0.67
2023-01-19T09:26:01.565Z,0.80
2023-01-19T09:28:29.415Z,0.70
2023-01-19T09:30:56.868Z,0.80
2023-01-19T09:33:24.779Z,0.80
2023-01-19T09:35:52.050Z,0.60
2023-01-19T09:38:20.042Z,0.70
2023-01-19T09:40:54.404Z,0.80
2023-01-19T09:43:42.149Z,0.77
2023-01-19T09:46:17.469Z,0.80
2023-01-19T09:48:54.284Z,0.60
2023-01-19T09:51:49.777Z,0.53
2023-01-19T09:54:31.429Z,0.60
2023-01-19T09:56:58.559Z,0.90
2023-01-19T09:59:26.829Z,0.70
2023-01-19T10:02:32.487Z,0.80
2023-01-19T10:05:12.560Z,0.70
2023-01-19T10:07:53.223Z,0.57
2023-01-19T10:10:27.033Z,0.70
2023-01-19T10:13:22.598Z,0.60
2023-01-19T10:15:58.956Z,0.60
2023-01-19T10:18:34.892Z,0.80
2023-01-19T10:21:14.549Z,0.70
2023-01-19T10:23:54.665Z,0.60
2023-01-19T10:26:26.082Z,0.70
2023-01-19T10:28:57.739Z,0.90
2023-01-19T10:31:25.816Z,0.67
2023-01-19T10:33:54.526Z,0.70
2023-01-19T10:36:35.339Z,0.80
2023-01-19T10:39:05.820Z,0.70
2023-01-19T10:41:43.862Z,0.60
2023-01-19T10:44:12.097Z,0.73
2023-01-19T10:46:45.023Z,0.80
2023-01-19T10:49:44.650Z,0.60
2023-01-19T10:52:31.311Z,0.60
2023-01-19T10:55:01.700Z,0.90
2023-01-19T10:57:43.367Z,0.70
2023-01-19T11:00:33.355Z,0.63
2023-01-19T11:03:01.674Z,0.80
2023-01-19T11:05:31.586Z,0.70
2023-01-19T11:07:59.150Z,0.80
2023-01-19T11:10:30.226Z,0.70
2023-01-19T11:13:26.617Z,0.60
2023-01-19T11:15:58.933Z,0.80
2023-01-19T11:18:39.040Z,0.60
2023-01-19T11:21:14.409Z,0.80
2023-01-19T11:23:46.714Z,0.60
2023-01-19T11:26:16.930Z,0.70
2023-01-19T11:28:48.882Z,0.70
2023-01-19T11:31:16.143Z,0.80
2023-01-19T11:33:52.165Z,1.10
2023-01-19T11:36:24.927Z,1.70
2023-01-19T11:38:54.832Z,1.00
2023-01-19T11:41:26.822Z,0.80
2023-01-19T11:44:08.626Z,0.70
2023-01-19T11:46:41.080Z,0.80
2023-01-19T11:49:46.968Z,0.80
2023-01-19T11:52:27.080Z,0.60
2023-01-19T11:55:14.724Z,0.70
2023-01-19T11:57:54.464Z,0.60
2023-01-19T12:00:42.989Z,0.77
2023-01-19T12:03:30.707Z,0.67
2023-01-19T12:06:06.235Z,0.63
2023-01-19T12:08:41.848Z,0.70
2023-01-19T12:11:14.851Z,0.70
2023-01-19T12:13:44.247Z,0.70
2023-01-19T12:16:20.416Z,1.07
2023-01-19T12:18:56.049Z,0.60
2023-01-19T12:21:23.187Z,0.60
2023-01-19T12:24:01.443Z,0.67
2023-01-19T12:26:35.091Z,1.00
2023-01-19T12:29:14.753Z,0.60
2023-01-19T12:31:43.264Z,0.70
2023-01-19T12:34:31.486Z,0.60
2023-01-19T12:37:03.846Z,0.80
2023-01-19T12:39:32.583Z,0.73
2023-01-19T12:42:19.375Z,0.80
2023-01-19T12:44:48.931Z,0.80
2023-01-19T12:47:16.068Z,0.80
2023-01-19T12:49:50.416Z,0.80
2023-01-19T12:52:20.381Z,0.83
2023-01-19T12:55:03.729Z,0.90
2023-01-19T12:57:33.443Z,0.90
2023-01-19T13:00:05.662Z,0.80
2023-01-19T13:02:45.272Z,1.03
2023-01-19T13:05:16.369Z,1.10
2023-01-19T13:08:01.960Z,1.10
2023-01-19T13:11:00.590Z,2.33
2023-01-19T13:13:30.301Z,1.97
2023-01-19T13:16:29.813Z,1.80
2023-01-19T13:19:06.326Z,2.23
2023-01-19T13:21:39.782Z,1.50
2023-01-19T13:24:12.908Z,2.37
2023-01-19T13:26:55.337Z,1.70
2023-01-19T13:29:30.405Z,1.60
2023-01-19T13:32:04.161Z,1.93
2023-01-19T13:34:39.048Z,1.87
2023-01-19T13:37:15.691Z,1.90
2023-01-19T13:39:45.520Z,1.90
2023-01-19T13:42:20.961Z,1.70
2023-01-19T13:44:52.773Z,1.90
2023-01-19T13:47:23.939Z,1.20
2023-01-19T13:49:56.615Z,1.50
2023-01-19T13:52:26.442Z,1.03
2023-01-19T13:54:54.628Z,1.70
2023-01-19T13:57:53.114Z,2.00
2023-01-19T14:00:31.166Z,1.83
2023-01-19T14:03:01.067Z,1.87
2023-01-19T14:05:37.641Z,2.23
2023-01-19T14:08:04.960Z,1.83
2023-01-19T14:10:33.040Z,2.00
2023-01-19T14:13:25.263Z,2.23
2023-01-19T14:15:55.944Z,2.10
2023-01-19T14:18:32.700Z,2.07
2023-01-19T14:21:03.441Z,1.60
2023-01-19T14:23:54.493Z,2.10
2023-01-19T14:26:42.369Z,1.70
2023-01-19T14:29:15.769Z,1.90
2023-01-19T14:31:49.341Z,2.17
2023-01-19T14:34:33.903Z,2.20
2023-01-19T14:37:13.220Z,1.30
2023-01-19T14:39:46.331Z,1.87
2023-01-19T14:42:35.909Z,1.20
2023-01-19T14:45:07.904Z,1.20
2023-01-19T14:47:38.660Z,1.60
2023-01-19T14:50:14.899Z,2.40
2023-01-19T14:52:43.980Z,2.07
2023-01-19T14:55:21.614Z,1.83
2023-01-19T14:57:49.181Z,1.87
2023-01-19T15:00:19.089Z,2.20
2023-01-19T15:02:47.282Z,1.77
2023-01-19T15:05:14.558Z,1.90
2023-01-19T15:07:43.974Z,2.17
2023-01-19T15:10:20.625Z,2.50
2023-01-19T15:12:49.503Z,2.10
2023-01-19T15:15:35.646Z,3.70
2023-01-19T15:18:04.846Z,3.03
2023-01-19T15:20:32.187Z,2.67
2023-01-19T15:22:59.435Z,2.70
2023-01-19T15:25:26.674Z,2.43
2023-01-19T15:27:57.113Z,2.70
2023-01-19T15:30:27.936Z,2.40
2023-01-19T15:32:55.159Z,3.33
2023-01-19T15:35:23.673Z,2.23
2023-01-19T15:37:51.192Z,3.33
2023-01-19T15:40:19.902Z,2.23
2023-01-19T15:42:47.232Z,2.30
2023-01-19T15:45:43.817Z,2.20
2023-01-19T15:48:12.087Z,2.40
2023-01-19T15:50:41.566Z,2.67
2023-01-19T15:53:18.011Z,2.53
2023-01-19T15:55:48.609Z,2.50
2023-01-19T15:58:15.777Z,2.43
2023-01-19T16:00:43.119Z,3.00
2023-01-19T16:03:11.128Z,3.00
2023-01-19T16:05:43.402Z,2.40
2023-01-19T16:08:11.977Z,3.13
2023-01-19T16:10:40.804Z,4.00
2023-01-19T16:13:09.659Z,3.47
2023-01-19T16:15:38.479Z,4.70
2023-01-19T16:18:06.174Z,3.07
2023-01-19T16:20:33.347Z,3.73
2023-01-19T16:23:13.816Z,2.90
2023-01-19T16:25:42.437Z,3.00
2023-01-19T16:28:09.675Z,3.17
2023-01-19T16:30:36.852Z,3.23
2023-01-19T16:33:05.308Z,3.37
2023-01-19T16:35:32.520Z,2.87
2023-01-19T16:37:59.653Z,2.60
2023-01-19T16:40:26.903Z,3.27
2023-01-19T16:42:54.021Z,3.40
2023-01-19T16:45:21.196Z,3.00
2023-01-19T16:47:50.700Z,2.67
2023-01-19T16:50:18.400Z,2.50
2023-01-19T16:52:45.837Z,2.60
2023-01-19T16:55:13.033Z,3.13
2023-01-19T16:57:40.244Z,3.27
2023-01-19T17:00:12.411Z,2.57
2023-01-19T17:02:39.830Z,2.70
2023-01-19T17:05:07.444Z,3.40
2023-01-19T17:07:34.611Z,1.93
2023-01-19T17:10:01.795Z,2.30
2023-01-19T17:12:30.775Z,3.17
2023-01-19T17:14:59.319Z,3.63
2023-01-19T17:17:26.458Z,4.60
2023-01-19T17:19:53.569Z,3.60
2023-01-19T17:22:20.747Z,3.33
2023-01-19T17:24:48.018Z,2.70
2023-01-19T17:27:15.216Z,2.33
2023-01-19T17:29:42.363Z,2.53
2023-01-19T17:32:09.569Z,2.03
2023-01-19T17:34:36.744Z,2.53
2023-01-19T17:37:04.325Z,2.93
2023-01-19T17:39:31.477Z,2.90
2023-01-19T17:42:13.841Z,5.63
2023-01-19T17:44:42.459Z,4.10
2023-01-19T17:47:09.633Z,3.83
2023-01-19T17:49:37.231Z,2.70
2023-01-19T17:52:04.595Z,1.83
2023-01-19T17:54:31.794Z,1.03
2023-01-19T17:56:58.959Z,1.30
2023-01-19T17:59:26.154Z,1.47
2023-01-19T18:01:53.400Z,3.00
2023-01-19T18:04:20.595Z,3.40
2023-01-19T18:06:49.109Z,3.30
2023-01-19T18:09:16.455Z,3.50
2023-01-19T18:11:43.649Z,3.10
2023-01-19T18:14:10.800Z,3.60
2023-01-19T18:16:38.026Z,3.10
2023-01-19T18:19:05.219Z,3.70
2023-01-19T18:21:32.502Z,4.30
2023-01-19T18:24:04.312Z,3.47
2023-01-19T18:26:33.527Z,4.13
2023-01-19T18:29:00.715Z,3.70
2023-01-19T18:31:28.600Z,5.53
2023-01-19T18:33:55.822Z,5.53
2023-01-19T18:36:23.001Z,6.50
2023-01-19T18:38:50.427Z,5.93
2023-01-19T18:41:20.491Z,6.17
2023-01-19T18:43:48.681Z,6.00
2023-01-19T18:46:16.169Z,3.07
2023-01-19T18:48:43.544Z,1.90
2023-01-19T18:51:15.577Z,1.60
2023-01-19T18:53:43.891Z,2.37
2023-01-19T18:56:15.706Z,1.70
2023-01-19T18:58:43.718Z,1.77
2023-01-19T19:01:33.325Z,2.03
2023-01-19T19:04:01.554Z,1.60
2023-01-19T19:06:29.119Z,4.17
2023-01-19T19:08:57.694Z,4.40
2023-01-19T19:11:25.962Z,4.80
2023-01-19T19:13:58.280Z,5.53
2023-01-19T19:16:26.325Z,7.40
2023-01-19T19:18:53.540Z,7.00
2023-01-19T19:21:22.305Z,5.90
2023-01-19T19:23:54.140Z,5.23
2023-01-19T19:26:22.153Z,3.63
2023-01-19T19:28:49.509Z,3.60
2023-01-19T19:31:20.619Z,2.90
2023-01-19T19:33:48.988Z,4.17
2023-01-19T19:36:16.379Z,3.80
2023-01-19T19:38:44.840Z,3.00
2023-01-19T19:41:14.632Z,3.27
2023-01-19T19:43:41.833Z,3.00
2023-01-19T19:46:12.071Z,4.20
2023-01-19T19:48:39.798Z,3.20
2023-01-19T19:51:17.995Z,3.00
2023-01-19T19:53:48.959Z,2.33
2023-01-19T19:56:21.227Z,2.70
2023-01-19T19:58:50.209Z,2.80
2023-01-19T20:01:25.329Z,2.67
2023-01-19T20:03:54.373Z,2.60
2023-01-19T20:06:24.600Z,2.80
2023-01-19T20:08:54.121Z,2.77
2023-01-19T20:11:23.988Z,3.70
2023-01-19T20:13:51.447Z,3.80
2023-01-19T20:16:22.542Z,3.40
2023-01-19T20:18:53.906Z,3.30
2023-01-19T20:21:29.390Z,4.87
2023-01-19T20:24:01.542Z,5.60
2023-01-19T20:26:31.756Z,9.87
2023-01-19T20:29:02.435Z,11.73
2023-01-19T20:31:32.557Z,10.20
2023-01-19T20:34:01.929Z,5.13
2023-01-19T20:36:29.065Z,5.30
2023-01-19T20:38:56.942Z,4.20
2023-01-19T20:41:25.246Z,2.80
2023-01-19T20:43:53.111Z,2.37
2023-01-19T20:46:20.683Z,2.77
2023-01-19T20:48:53.051Z,2.60
2023-01-19T20:51:20.939Z,2.60
2023-01-19T20:53:48.478Z,2.77
2023-01-19T20:56:16.110Z,2.40
2023-01-19T20:58:43.291Z,2.20
2023-01-19T21:01:17.213Z,2.43
2023-01-19T21:03:44.928Z,2.30
2023-01-19T21:06:14.414Z,1.70
2023-01-19T21:08:42.411Z,1.53
2023-01-19T21:11:10.302Z,1.47
2023-01-19T21:13:37.723Z,1.80
2023-01-19T21:16:05.521Z,1.60
2023-01-19T21:18:33.042Z,2.00
2023-01-19T21:21:00.265Z,1.60
2023-01-19T21:23:28.133Z,1.90
2023-01-19T21:25:58.460Z,2.03
2023-01-19T21:28:26.647Z,2.20
2023-01-19T21:30:55.260Z,2.20
2023-01-19T21:33:22.562Z,2.30
2023-01-19T21:35:51.707Z,2.27
2023-01-19T21:38:19.586Z,2.40
2023-01-19T21:40:47.009Z,2.10
2023-01-19T21:43:14.298Z,2.60
2023-01-19T21:45:43.179Z,2.53
2023-01-19T21:48:10.474Z,2.70
2023-01-19T21:50:38.065Z,2.87
2023-01-19T21:53:11.061Z,3.03
2023-01-19T21:55:43.076Z,2.80
2023-01-19T21:58:10.216Z,2.57
2023-01-19T22:00:37.335Z,2.50
2023-01-19T22:03:05.006Z,3.43
2023-01-19T22:05:37.131Z,2.40
2023-01-19T22:08:06.347Z,2.20
2023-01-19T22:10:37.232Z,2.57
2023-01-19T22:13:06.657Z,1.90
2023-01-19T22:15:33.979Z,2.37
2023-01-19T22:18:01.190Z,2.00
2023-01-19T22:20:28.378Z,1.83
2023-01-19T22:22:56.650Z,1.60
2023-01-19T22:25:27.727Z,1.10
2023-01-19T22:27:56.017Z,1.50
2023-01-19T22:30:23.280Z,1.60
2023-01-19T22:32:50.655Z,1.33
2023-01-19T22:35:17.980Z,1.30
2023-01-19T22:37:45.131Z,1.20
2023-01-19T22:40:12.564Z,1.80
2023-01-19T22:42:39.757Z,1.67
2023-01-19T22:45:07.569Z,1.40
2023-01-19T22:47:34.758Z,1.47
2023-01-19T22:50:01.951Z,1.60
2023-01-19T22:52:29.141Z,1.00
2023-01-19T22:54:58.199Z,1.50
2023-01-19T22:57:25.449Z,1.20
2023-01-19T22:59:52.603Z,1.40
2023-01-19T23:02:20.891Z,1.70
2023-01-19T23:04:48.414Z,1.73
2023-01-19T23:07:15.595Z,1.20
2023-01-19T23:09:42.807Z,1.10
2023-01-19T23:12:09.911Z,1.43
2023-01-19T23:14:37.079Z,1.10
2023-01-19T23:17:04.229Z,1.47
2023-01-19T23:19:31.565Z,1.10
2023-01-19T23:21:58.781Z,1.10
2023-01-19T23:24:26.234Z,1.23
2023-01-19T23:26:53.365Z,1.37
2023-01-19T23:29:20.544Z,1.10
2023-01-19T23:31:49.638Z,1.17
2023-01-19T23:34:17.021Z,1.47
2023-01-19T23:36:44.829Z,1.10
2023-01-19T23:39:20.476Z,1.33
2023-01-19T23:41:48.788Z,1.00
2023-01-19T23:44:17.135Z,1.13
2023-01-19T23:46:45.031Z,1.10
2023-01-19T23:49:12.944Z,1.50
2023-01-19T23:51:40.954Z,1.50
2023-01-19T23:54:08.537Z,1.40
2023-01-19T23:56:37.995Z,1.40
2023-01-19T23:59:16.025Z,1.27
